Etusivu
METAR-TAF:

METAR-TAF

Lentoasemat :

Pantelleria, Italia

Leveyspiiri: 36-49N, Pituuspiiri: 011-58E, korkeus merenpinnasta: 191 m

Tämänhetkinen sää

Tämä raportti tehtiin 36 minuuttia sitten, kello 13.50 UTC
Tuuli 13 kn etelästä/lounaasta
Lämpötila 32°C
Kosteus 24%
Ilmanpaine 1017 hPa
Näkyvyys 10 km tai enemmän
ei pilviä alle 1500 m:ssä eikä cumulonimbus-pilviä

METAR: LICG 281350Z 20013KT CAVOK 32/09 Q1017

Aika: 16:26 (14:26 UTC)

Sääennuste

Tämä raportti tehtiin 3 tuntia ja 26 minuuttia sitten, kello 11.00 UTC
Ennuste voimassa 28. päivästä klo 12 UTC - 28. päivään klo 21 UTC
Tuuli 13 kn etelästä/lounaasta
Näkyvyys 10 km tai enemmän
ei pilviä alle 1500 m:ssä eikä cumulonimbus-pilviä
Tulossa
28. päivästä klo 18 UTC - 28. päivään klo 20 UTC
Tuuli 5 kn eri suunnista

TAF: LICG 281100Z 2812/2821 20013KT CAVOK BECMG 2818/2820 VRB05KT

Säähavainnot ja -ennusteet yli 4000 lentoasemalta (METAR- ja TAF-raportit).

Käytössä olevat sääasemat on merkitty karttaan keltaisilla ja punaisilla pisteillä.

Aseta hiiri pisteen päälle nähdäksesi sääaseman nimen.

Klikkaa sitten nähdäksesi säähavainnot ja -ennusteet.

Kartan vaihtaminen: klikkaa mustalla rastilla varustettuja vihreitä pisteitä, niin voit zoomata sisään; viivalla varustettua vihreää pistettä, niin voit zoomata ulos tai vihreitä nuolia, niin pääset viereisille kartoille.


METAR-TAF: